createdAt,value
2022-11-01T00:01:02.424Z,65.46
2022-11-01T00:05:03.722Z,65.26
2022-11-01T00:09:03.838Z,66.03
2022-11-01T00:13:06.598Z,66.13
2022-11-01T00:17:06.787Z,66.38
2022-11-01T00:21:07.614Z,66.57
2022-11-01T00:25:08.619Z,67.28
2022-11-01T00:29:11.573Z,66.48
2022-11-01T00:33:12.054Z,66.37
2022-11-01T00:37:12.220Z,67.06
2022-11-01T00:41:13.067Z,66.97
2022-11-01T00:45:16.001Z,65.95
2022-11-01T00:49:16.374Z,65.44
2022-11-01T00:53:16.725Z,65.41
2022-11-01T00:57:16.897Z,65.89
2022-11-01T01:01:19.843Z,65.68
2022-11-01T01:05:21.065Z,65.33
2022-11-01T01:09:21.131Z,65.81
2022-11-01T01:13:21.809Z,65.83
2022-11-01T01:17:26.681Z,65.12
2022-11-01T01:21:28.831Z,64.83
2022-11-01T01:25:29.150Z,65.02
2022-11-01T01:29:29.692Z,65.44
2022-11-01T01:33:32.466Z,65.05
2022-11-01T01:37:32.659Z,64.73
2022-11-01T01:41:45.193Z,64.87
2022-11-01T01:45:45.992Z,64.96
2022-11-01T01:49:49.916Z,65.63
2022-11-01T01:53:54.374Z,65.62
2022-11-01T01:57:57.333Z,65.86
2022-11-01T02:01:57.729Z,65.60
2022-11-01T02:06:09.657Z,65.47
2022-11-01T02:10:12.232Z,65.92
2022-11-01T02:14:12.741Z,65.81
2022-11-01T02:18:27.507Z,65.78
2022-11-01T02:22:58.692Z,65.51
2022-11-01T02:27:16.270Z,65.47
2022-11-01T02:31:47.984Z,65.70
2022-11-01T02:36:07.862Z,65.42
2022-11-01T02:40:17.550Z,65.69
2022-11-01T02:44:23.209Z,64.80
2022-11-01T02:48:27.289Z,64.68
2022-11-01T02:52:34.821Z,65.08
2022-11-01T02:56:35.097Z,65.17
2022-11-01T03:00:38.236Z,65.15
2022-11-01T03:04:39.159Z,65.34
2022-11-01T03:08:48.470Z,65.37
2022-11-01T03:13:01.936Z,65.67
2022-11-01T03:17:09.981Z,65.10
2022-11-01T03:21:19.736Z,65.09
2022-11-01T03:25:44.513Z,65.29
2022-11-01T03:29:50.072Z,65.39
2022-11-01T03:33:56.833Z,65.34
2022-11-01T03:38:04.666Z,65.47
2022-11-01T03:42:14.698Z,65.09
2022-11-01T03:46:17.489Z,64.98
2022-11-01T03:50:20.808Z,64.76
2022-11-01T03:54:20.888Z,64.69
2022-11-01T03:58:23.660Z,64.69
2022-11-01T04:02:23.751Z,65.22
2022-11-01T04:06:23.876Z,64.79
2022-11-01T04:10:26.183Z,64.91
2022-11-01T04:14:41.405Z,64.71
2022-11-01T04:19:08.802Z,64.93
2022-11-01T04:23:10.340Z,65.62
2022-11-01T04:27:10.512Z,65.33
2022-11-01T04:31:13.896Z,65.88
2022-11-01T04:35:14.244Z,66.28
2022-11-01T04:39:14.476Z,65.97
2022-11-01T04:43:15.390Z,65.62
2022-11-01T04:47:18.157Z,65.80
2022-11-01T04:51:18.457Z,65.29
2022-11-01T04:55:18.745Z,65.55
2022-11-01T04:59:18.895Z,65.33
2022-11-01T05:03:21.629Z,65.27
2022-11-01T05:07:22.755Z,65.74
2022-11-01T05:11:25.828Z,65.58
2022-11-01T05:15:26.484Z,65.39
2022-11-01T05:19:29.463Z,65.35
2022-11-01T05:23:29.784Z,65.08
2022-11-01T05:27:29.838Z,64.94
2022-11-01T05:31:30.024Z,64.87
2022-11-01T05:35:33.584Z,65.05
2022-11-01T05:39:33.692Z,65.42
2022-11-01T05:43:33.768Z,64.90
2022-11-01T05:47:36.107Z,65.27
2022-11-01T05:51:39.234Z,64.82
2022-11-01T05:55:40.372Z,64.76
2022-11-01T05:59:40.719Z,64.48
2022-11-01T06:03:40.960Z,65.51
2022-11-01T06:07:43.716Z,65.89
2022-11-01T06:11:43.814Z,66.42
2022-11-01T06:15:44.159Z,65.88
2022-11-01T06:19:44.285Z,65.53
2022-11-01T06:23:50.804Z,65.14
2022-11-01T06:27:51.055Z,64.88
2022-11-01T06:31:51.187Z,64.50
2022-11-01T06:35:51.320Z,64.78
2022-11-01T06:39:54.072Z,64.68
2022-11-01T06:43:54.218Z,64.55
2022-11-01T06:47:54.513Z,65.23
2022-11-01T06:51:54.644Z,65.01
2022-11-01T06:55:57.412Z,64.34
2022-11-01T06:59:58.451Z,64.28
2022-11-01T07:03:58.731Z,64.01
2022-11-01T07:07:59.233Z,63.70
2022-11-01T07:12:02.077Z,63.32
2022-11-01T07:16:04.819Z,62.68
2022-11-01T07:20:04.970Z,63.26
2022-11-01T07:24:05.477Z,63.51
2022-11-01T07:28:08.721Z,63.55
2022-11-01T07:32:09.405Z,63.58
2022-11-01T07:36:11.209Z,62.79
2022-11-01T07:40:13.408Z,62.63
2022-11-01T07:44:16.139Z,62.04
2022-11-01T07:48:19.330Z,61.12
2022-11-01T07:52:19.850Z,61.37
2022-11-01T07:56:21.783Z,60.29
2022-11-01T08:00:25.401Z,60.52
2022-11-01T08:04:25.537Z,60.42
2022-11-01T08:08:25.612Z,60.46
2022-11-01T08:12:25.721Z,60.81
2022-11-01T08:16:28.481Z,61.68
2022-11-01T08:20:30.204Z,63.21
2022-11-01T08:24:30.639Z,61.69
2022-11-01T08:28:30.711Z,61.31
2022-11-01T08:32:33.648Z,60.55
2022-11-01T08:36:34.232Z,60.38
2022-11-01T08:40:36.132Z,60.36
2022-11-01T08:44:36.314Z,59.08
2022-11-01T08:48:39.097Z,58.49
2022-11-01T08:52:43.245Z,57.60
2022-11-01T08:56:43.478Z,57.49
2022-11-01T09:00:43.668Z,56.77
2022-11-01T09:04:46.356Z,56.34
2022-11-01T09:08:46.423Z,54.85
2022-11-01T09:12:46.887Z,55.74
2022-11-01T09:16:47.042Z,53.81
2022-11-01T09:20:57.197Z,53.56
2022-11-01T09:24:58.784Z,52.01
2022-11-01T09:29:00.700Z,52.73
2022-11-01T09:33:01.234Z,51.47
2022-11-01T09:37:04.956Z,49.42
2022-11-01T09:41:10.061Z,47.57
2022-11-01T09:45:19.913Z,46.86
2022-11-01T09:49:26.853Z,45.09
2022-11-01T09:53:32.588Z,45.37
2022-11-01T09:57:43.696Z,46.17
2022-11-01T10:01:58.991Z,46.07
2022-11-01T10:06:11.568Z,46.25
2022-11-01T10:10:36.775Z,44.59
2022-11-01T10:15:00.913Z,44.67
2022-11-01T10:19:12.022Z,44.90
2022-11-01T10:23:19.259Z,44.03
2022-11-01T10:27:36.165Z,44.62
2022-11-01T10:31:46.731Z,46.11
2022-11-01T10:35:53.271Z,46.54
2022-11-01T10:40:02.854Z,47.71
2022-11-01T10:44:18.542Z,49.99
2022-11-01T10:48:38.447Z,50.99
2022-11-01T10:52:52.503Z,51.61
2022-11-01T10:56:57.077Z,51.86
2022-11-01T11:01:00.319Z,50.80
2022-11-01T11:05:00.976Z,49.37
2022-11-01T11:09:01.513Z,50.43
2022-11-01T11:13:08.363Z,51.10
2022-11-01T11:17:21.166Z,51.19
2022-11-01T11:21:25.612Z,51.17
2022-11-01T11:25:38.916Z,50.60
2022-11-01T11:29:48.622Z,50.03
2022-11-01T11:33:59.938Z,48.92
2022-11-01T11:38:02.726Z,48.38
2022-11-01T11:42:20.528Z,48.77
2022-11-01T11:46:24.707Z,49.41
2022-11-01T11:50:37.954Z,49.78
2022-11-01T11:54:39.280Z,49.89
2022-11-01T11:58:45.184Z,49.23
2022-11-01T12:02:45.479Z,49.16
2022-11-01T12:06:49.683Z,49.00
2022-11-01T12:10:50.043Z,47.55
2022-11-01T12:14:50.926Z,45.29
2022-11-01T12:18:58.030Z,43.37
2022-11-01T12:23:10.699Z,42.96
2022-11-01T12:27:21.264Z,42.85
2022-11-01T12:31:30.278Z,43.77
2022-11-01T12:35:35.661Z,44.35
2022-11-01T12:39:53.394Z,45.87
2022-11-01T12:44:09.641Z,45.17
2022-11-01T12:48:16.929Z,45.48
2022-11-01T12:52:29.744Z,45.01
2022-11-01T12:56:32.563Z,45.00
2022-11-01T13:00:50.664Z,44.31
2022-11-01T13:05:01.875Z,45.19
2022-11-01T13:09:11.848Z,46.07
2022-11-01T13:13:27.504Z,44.94
2022-11-01T13:17:37.938Z,44.00
2022-11-01T13:21:49.672Z,43.16
2022-11-01T13:26:00.929Z,43.52
2022-11-01T13:30:09.600Z,44.57
2022-11-01T13:34:31.172Z,45.20
2022-11-01T13:38:41.688Z,45.23
2022-11-01T13:42:49.655Z,45.32
2022-11-01T13:47:34.761Z,45.26
2022-11-01T13:51:47.890Z,44.92
2022-11-01T13:55:56.581Z,43.79
2022-11-01T14:00:01.050Z,44.43
2022-11-01T14:04:49.148Z,44.86
2022-11-01T14:08:52.242Z,45.00
2022-11-01T14:13:18.155Z,45.72
2022-11-01T14:18:05.325Z,46.98
2022-11-01T14:22:06.462Z,48.17
2022-11-01T14:26:38.701Z,48.71
2022-11-01T14:30:43.387Z,48.20
2022-11-01T14:34:45.862Z,48.55
2022-11-01T14:38:55.398Z,48.08
2022-11-01T14:43:06.287Z,47.75
2022-11-01T14:47:24.255Z,48.29
2022-11-01T14:51:38.469Z,48.04
2022-11-01T14:55:40.159Z,47.89
2022-11-01T14:59:42.977Z,48.57
2022-11-01T15:03:46.455Z,48.63
2022-11-01T15:07:53.582Z,48.30
2022-11-01T15:11:57.694Z,48.83
2022-11-01T15:16:17.987Z,48.26
2022-11-01T15:20:22.674Z,48.45
2022-11-01T15:24:26.569Z,48.45
2022-11-01T15:28:33.696Z,48.63
2022-11-01T15:32:37.949Z,48.21
2022-11-01T15:36:40.443Z,48.07
2022-11-01T15:40:41.900Z,48.03
2022-11-01T15:44:46.078Z,48.35
2022-11-01T15:48:51.692Z,48.87
2022-11-01T15:52:52.088Z,49.11
2022-11-01T15:56:59.261Z,49.54
2022-11-01T16:01:05.639Z,50.03
2022-11-01T16:05:10.559Z,49.91
2022-11-01T16:09:21.966Z,49.63
2022-11-01T16:13:23.533Z,49.69
2022-11-01T16:17:35.181Z,50.26
2022-11-01T16:21:38.694Z,51.02
2022-11-01T16:25:41.274Z,51.38
2022-11-01T16:29:51.978Z,51.52
2022-11-01T16:33:53.727Z,51.22
2022-11-01T16:37:56.352Z,52.59
2022-11-01T16:41:57.621Z,53.17
2022-11-01T16:45:58.563Z,55.23
2022-11-01T16:49:58.795Z,54.68
2022-11-01T16:54:03.430Z,54.41
2022-11-01T16:58:04.000Z,55.42
2022-11-01T17:02:17.198Z,56.01
2022-11-01T17:06:17.638Z,56.71
2022-11-01T17:10:25.629Z,57.22
2022-11-01T17:14:26.546Z,58.23
2022-11-01T17:18:33.113Z,59.31
2022-11-01T17:22:39.194Z,59.65
2022-11-01T17:26:41.952Z,59.41
2022-11-01T17:30:42.230Z,59.49
2022-11-01T17:34:42.361Z,59.10
2022-11-01T17:38:43.202Z,59.40
2022-11-01T17:42:45.946Z,59.41
2022-11-01T17:46:46.059Z,60.70
2022-11-01T17:50:46.778Z,61.28
2022-11-01T17:54:46.940Z,61.08
2022-11-01T17:58:52.221Z,61.26
2022-11-01T18:02:52.557Z,61.48
2022-11-01T18:06:52.626Z,61.67
2022-11-01T18:11:09.195Z,61.91
2022-11-01T18:15:25.535Z,62.14
2022-11-01T18:20:12.375Z,63.13
2022-11-01T18:24:22.638Z,62.61
2022-11-01T18:28:26.665Z,63.83
2022-11-01T18:32:38.617Z,63.58
2022-11-01T18:36:52.408Z,63.40
2022-11-01T18:41:00.542Z,64.20
2022-11-01T18:45:05.360Z,63.68
2022-11-01T18:49:15.500Z,63.49
2022-11-01T18:53:18.367Z,63.88
2022-11-01T18:57:22.179Z,63.86
2022-11-01T19:01:31.642Z,63.64
2022-11-01T19:05:41.678Z,64.50
2022-11-01T19:09:44.106Z,65.80
2022-11-01T19:13:44.562Z,65.26
2022-11-01T19:17:49.199Z,64.96
2022-11-01T19:21:52.142Z,64.42
2022-11-01T19:25:53.822Z,64.55
2022-11-01T19:29:57.996Z,64.57
2022-11-01T19:34:03.406Z,63.90
2022-11-01T19:38:06.671Z,64.72
2022-11-01T19:42:25.115Z,64.82
2022-11-01T19:46:25.284Z,64.25
2022-11-01T19:50:28.547Z,64.59
2022-11-01T19:54:39.005Z,64.26
2022-11-01T19:58:46.734Z,63.79
2022-11-01T20:02:47.091Z,63.72
2022-11-01T20:06:56.077Z,63.18
2022-11-01T20:10:59.006Z,62.81
2022-11-01T20:14:59.352Z,63.44
2022-11-01T20:18:59.604Z,64.23
2022-11-01T20:23:20.371Z,63.60
2022-11-01T20:27:23.411Z,63.96
2022-11-01T20:31:23.821Z,64.69
2022-11-01T20:35:24.085Z,64.68
2022-11-01T20:39:25.307Z,64.88
2022-11-01T20:43:28.314Z,65.36
2022-11-01T20:47:28.379Z,64.97
2022-11-01T20:51:29.741Z,64.49
2022-11-01T20:55:30.471Z,64.62
2022-11-01T20:59:33.276Z,64.24
2022-11-01T21:03:33.392Z,64.48
2022-11-01T21:07:35.674Z,64.72
2022-11-01T21:11:44.304Z,64.03
2022-11-01T21:15:48.913Z,64.21
2022-11-01T21:19:56.086Z,64.52
2022-11-01T21:23:57.498Z,64.49
2022-11-01T21:27:58.378Z,64.54
2022-11-01T21:32:01.741Z,64.29
2022-11-01T21:36:02.263Z,64.74
2022-11-01T21:40:07.567Z,63.88
2022-11-01T21:44:27.432Z,64.11
2022-11-01T21:48:32.365Z,65.19
2022-11-01T21:52:32.505Z,65.27
2022-11-01T21:56:32.597Z,65.35
2022-11-01T22:00:32.758Z,64.87
2022-11-01T22:04:36.250Z,65.03
2022-11-01T22:08:36.384Z,65.13
2022-11-01T22:12:36.654Z,65.18
2022-11-01T22:16:37.678Z,65.43
2022-11-01T22:20:54.539Z,64.33
2022-11-01T22:24:54.632Z,64.77
2022-11-01T22:28:55.102Z,64.86
2022-11-01T22:32:55.429Z,64.36
2022-11-01T22:36:59.185Z,64.20
2022-11-01T22:41:04.117Z,64.20
2022-11-01T22:45:04.477Z,64.42
2022-11-01T22:49:15.250Z,64.47
2022-11-01T22:53:22.650Z,63.79
2022-11-01T22:57:29.892Z,64.16
2022-11-01T23:01:34.377Z,64.54
2022-11-01T23:05:34.939Z,63.96
2022-11-01T23:09:37.802Z,63.72
2022-11-01T23:13:53.109Z,63.63
2022-11-01T23:17:53.204Z,63.30
2022-11-01T23:21:53.385Z,63.35
2022-11-01T23:25:58.448Z,63.59
2022-11-01T23:30:03.606Z,63.78
2022-11-01T23:34:03.692Z,63.78
2022-11-01T23:38:03.843Z,63.34
2022-11-01T23:42:08.688Z,64.28
2022-11-01T23:46:10.452Z,64.54
2022-11-01T23:50:19.268Z,64.04
2022-11-01T23:54:36.559Z,64.67
2022-11-01T23:58:40.983Z,64.17
